Time;durP1;ratioP1;P1;durP2;ratioP2;P2;SDS_P1;SDS_P2;PMS_P1;PMS_P2;Temp;Humidity;BMP_temperature;BMP_pressure;BME280_temperature;BME280_humidity;BME280_pressure;Samples;Min_cycle;Max_cycle;Signal;HPM_P1;HPM_P2
2021/06/23 00:01:28;;;;;;;22.38;5.28;;;25.70;97.50;;;;;;4996923;28;20063;-78
2021/06/23 00:03:53;;;;;;;43.28;6.85;;;25.70;97.30;;;;;;5014325;28;20022;-77
2021/06/23 00:06:19;;;;;;;41.78;6.45;;;25.70;97.30;;;;;;5013040;28;20025;-78
2021/06/23 00:08:45;;;;;;;33.78;7.07;;;25.60;97.50;;;;;;5012879;28;20026;-77
2021/06/23 00:11:10;;;;;;;46.45;7.53;;;25.60;97.50;;;;;;5012927;28;20152;-77
2021/06/23 00:13:36;;;;;;;46.58;6.60;;;25.50;97.60;;;;;;5012903;28;20482;-77
2021/06/23 00:16:05;;;;;;;42.47;6.78;;;25.50;97.50;;;;;;5012771;28;20026;-78
2021/06/23 00:18:31;;;;;;;43.10;6.63;;;25.40;97.70;;;;;;5012041;28;20046;-78
2021/06/23 00:20:57;;;;;;;38.05;6.93;;;25.50;97.70;;;;;;5011256;28;20028;-77
2021/06/23 00:23:23;;;;;;;40.08;6.88;;;25.50;97.60;;;;;;5013388;28;20083;-78
2021/06/23 00:25:49;;;;;;;51.65;7.00;;;25.60;97.80;;;;;;5013859;28;20089;-78
2021/06/23 00:28:14;;;;;;;35.42;6.70;;;25.60;97.30;;;;;;5013949;28;20057;-78
2021/06/23 00:30:40;;;;;;;57.40;8.10;;;25.60;97.70;;;;;;5013834;28;20024;-77
2021/06/23 00:33:08;;;;;;;35.50;7.20;;;25.60;97.60;;;;;;5013145;28;20076;-78
2021/06/23 00:35:35;;;;;;;30.60;5.45;;;25.60;97.70;;;;;;5013448;28;20566;-78
2021/06/23 00:38:01;;;;;;;41.58;6.38;;;25.70;97.90;;;;;;5013110;28;20057;-78
2021/06/23 00:40:27;;;;;;;36.95;6.68;;;25.70;97.90;;;;;;5013710;28;20022;-77
2021/06/23 00:42:53;;;;;;;42.35;6.32;;;25.70;97.30;;;;;;5013675;28;20041;-78
2021/06/23 00:45:20;;;;;;;42.38;6.93;;;25.60;97.30;;;;;;5013299;28;20026;-77
2021/06/23 00:47:46;;;;;;;45.33;6.55;;;25.60;97.20;;;;;;5013221;28;20090;-77
2021/06/23 00:50:14;;;;;;;44.88;6.88;;;25.60;97.10;;;;;;5013315;28;20064;-78
2021/06/23 00:52:40;;;;;;;36.85;7.50;;;25.60;97.00;;;;;;5013033;28;20117;-78
2021/06/23 00:55:07;;;;;;;33.20;6.53;;;25.60;97.20;;;;;;5012272;28;20033;-78
2021/06/23 00:57:33;;;;;;;38.10;7.50;;;25.60;97.00;;;;;;5013214;28;20022;-77
2021/06/23 00:59:59;;;;;;;39.17;6.32;;;25.60;96.90;;;;;;5013378;28;20014;-78
2021/06/23 01:02:28;;;;;;;44.58;8.65;;;25.60;96.80;;;;;;5013081;28;20672;-78
2021/06/23 01:04:55;;;;;;;56.65;7.68;;;25.60;96.90;;;;;;5013273;28;20022;-77
2021/06/23 01:07:21;;;;;;;37.35;6.45;;;25.50;97.00;;;;;;5012994;28;20117;-77
2021/06/23 01:09:47;;;;;;;26.42;6.63;;;25.20;97.30;;;;;;5013490;28;20534;-77
2021/06/23 01:12:28;;;;;;;41.45;7.50;;;25.10;97.60;;;;;;5013206;28;20028;-78
2021/06/23 01:15:01;;;;;;;43.33;6.97;;;24.90;97.80;;;;;;5013013;28;20057;-78
2021/06/23 01:17:29;;;;;;;36.08;7.95;;;24.90;98.00;;;;;;5012376;28;20045;-78
2021/06/23 01:20:07;;;;;;;46.70;7.25;;;24.80;98.00;;;;;;4995051;28;20387;-77
2021/06/23 01:22:33;;;;;;;46.03;8.63;;;24.70;98.10;;;;;;5012411;28;20112;-78
2021/06/23 01:25:00;;;;;;;58.67;7.43;;;24.70;98.10;;;;;;5012912;28;20021;-78
2021/06/23 01:27:26;;;;;;;51.08;7.80;;;24.60;98.10;;;;;;5012665;28;20030;-77
2021/06/23 01:29:52;;;;;;;60.22;7.50;;;24.60;98.10;;;;;;5013003;28;20540;-78
2021/06/23 01:32:18;;;;;;;37.03;7.45;;;24.70;98.00;;;;;;5012456;28;20072;-77
2021/06/23 01:34:43;;;;;;;34.88;6.72;;;24.70;97.90;;;;;;5026628;28;20033;-78
2021/06/23 01:37:09;;;;;;;47.28;7.40;;;24.80;97.90;;;;;;5012693;28;20022;-77
2021/06/23 01:39:36;;;;;;;47.58;6.90;;;24.80;97.90;;;;;;5012760;28;20060;-77
2021/06/23 01:42:02;;;;;;;45.15;7.55;;;24.80;97.90;;;;;;5012540;28;20034;-78
2021/06/23 01:44:28;;;;;;;46.63;8.30;;;24.80;98.00;;;;;;5012455;28;20069;-78
2021/06/23 01:46:56;;;;;;;39.33;8.07;;;24.80;98.00;;;;;;5012373;28;20112;-77
2021/06/23 01:49:24;;;;;;;39.10;8.10;;;24.80;98.10;;;;;;5012747;28;20079;-78
2021/06/23 01:51:49;;;;;;;40.80;7.22;;;24.80;98.20;;;;;;5011970;28;20021;-78
2021/06/23 01:54:15;;;;;;;46.95;7.60;;;24.70;98.30;;;;;;5012232;28;20030;-77
2021/06/23 01:56:41;;;;;;;40.33;7.32;;;24.70;98.40;;;;;;5012166;28;20029;-78
2021/06/23 01:59:08;;;;;;;40.83;6.50;;;24.70;98.50;;;;;;5012391;28;20386;-77
2021/06/23 02:01:36;;;;;;;41.53;7.18;;;24.70;98.60;;;;;;5012338;28;20422;-78
2021/06/23 02:04:47;;;;;;;37.17;7.82;;;24.60;98.70;;;;;;5012393;28;20017;-78
2021/06/23 02:07:34;;;;;;;36.58;7.50;;;24.60;98.80;;;;;;4932728;29;20118;-78
2021/06/23 02:10:11;;;;;;;47.75;8.00;;;24.50;98.90;;;;;;5012030;28;20087;-78
2021/06/23 02:13:19;;;;;;;41.90;8.70;;;24.50;98.90;;;;;;5012178;28;20564;-77
2021/06/23 02:15:46;;;;;;;44.88;7.78;;;24.50;99.10;;;;;;4975085;28;20474;-77
2021/06/23 02:18:12;;;;;;;40.72;7.78;;;24.50;99.20;;;;;;5011630;28;20080;-77
2021/06/23 02:20:39;;;;;;;41.42;8.02;;;24.50;99.60;;;;;;5012170;28;20034;-78
2021/06/23 02:23:10;;;;;;;45.03;9.02;;;24.50;99.40;;;;;;5012044;28;20441;-77
2021/06/23 02:25:37;;;;;;;43.15;8.25;;;24.50;99.50;;;;;;5011830;28;20025;-78
2021/06/23 02:28:04;;;;;;;40.55;7.45;;;24.40;99.60;;;;;;5011294;28;20075;-78
2021/06/23 02:30:30;;;;;;;53.83;8.70;;;24.40;99.70;;;;;;4994405;28;20464;-78
2021/06/23 02:32:56;;;;;;;41.92;8.15;;;24.30;99.80;;;;;;5011729;28;20034;-77
2021/06/23 02:35:28;;;;;;;45.72;8.45;;;24.30;99.90;;;;;;5011994;28;20014;-77
2021/06/23 02:37:58;;;;;;;53.80;8.57;;;24.30;99.90;;;;;;5012047;28;20489;-78
2021/06/23 02:40:24;;;;;;;45.08;8.25;;;24.30;99.90;;;;;;5012382;28;20038;-78
2021/06/23 02:42:50;;;;;;;45.25;8.38;;;24.30;99.90;;;;;;5011308;28;20496;-79
2021/06/23 02:45:16;;;;;;;41.55;7.20;;;24.20;99.90;;;;;;5011017;28;20038;-77
2021/06/23 02:47:42;;;;;;;47.65;7.10;;;24.20;99.90;;;;;;4993849;28;20079;-78
2021/06/23 02:50:08;;;;;;;42.97;7.93;;;24.20;99.90;;;;;;5011917;28;20410;-78
2021/06/23 02:52:35;;;;;;;50.60;7.10;;;24.20;99.90;;;;;;5011903;28;20032;-77
2021/06/23 02:55:05;;;;;;;42.38;8.70;;;24.20;99.90;;;;;;5011563;28;20018;-78
2021/06/23 02:57:32;;;;;;;43.60;8.27;;;24.20;99.90;;;;;;4978116;28;20486;-76
2021/06/23 02:59:59;;;;;;;32.88;8.38;;;24.20;99.90;;;;;;5011881;28;20021;-77
2021/06/23 03:02:25;;;;;;;48.10;7.65;;;24.20;99.90;;;;;;5011482;28;20505;-78
2021/06/23 03:04:51;;;;;;;49.75;8.15;;;24.20;99.90;;;;;;5011801;28;20033;-76
2021/06/23 03:07:17;;;;;;;65.43;9.07;;;24.20;99.90;;;;;;4990289;28;20027;-78
2021/06/23 03:09:44;;;;;;;42.20;7.05;;;24.20;99.90;;;;;;5010996;28;20474;-77
2021/06/23 03:12:14;;;;;;;42.72;6.70;;;24.20;99.90;;;;;;5011360;28;20018;-77
2021/06/23 03:14:41;;;;;;;54.42;7.93;;;24.20;99.90;;;;;;5011423;28;20022;-78
2021/06/23 03:17:06;;;;;;;48.38;7.40;;;24.30;99.90;;;;;;5011276;28;20038;-78
2021/06/23 03:19:33;;;;;;;37.85;7.82;;;24.20;99.90;;;;;;5014134;28;20033;-77
2021/06/23 03:22:06;;;;;;;35.50;6.78;;;24.30;99.90;;;;;;5015380;28;20034;-78
2021/06/23 03:24:32;;;;;;;37.95;7.70;;;24.30;99.90;;;;;;5014675;28;20394;-77
2021/06/23 03:26:58;;;;;;;53.80;8.15;;;24.30;99.90;;;;;;4996674;28;20018;-77
2021/06/23 03:29:32;;;;;;;46.60;8.43;;;24.30;99.90;;;;;;5014539;28;20022;-76
2021/06/23 03:31:59;;;;;;;31.30;7.53;;;24.40;99.90;;;;;;5007798;28;20046;-76
2021/06/23 03:34:25;;;;;;;41.85;7.30;;;24.40;99.90;;;;;;4997339;28;20374;-77
2021/06/23 03:36:51;;;;;;;57.10;7.22;;;24.50;99.90;;;;;;5014663;28;20030;-77
2021/06/23 03:39:17;;;;;;;48.42;10.23;;;24.50;99.90;;;;;;5014866;28;20026;-76
2021/06/23 03:41:43;;;;;;;51.60;8.77;;;24.50;99.90;;;;;;5014381;28;20092;-77
2021/06/23 03:44:09;;;;;;;52.88;7.45;;;24.50;99.90;;;;;;5014797;28;20020;-77
2021/06/23 03:46:35;;;;;;;39.97;7.43;;;24.50;99.90;;;;;;5014784;28;20094;-77
2021/06/23 03:49:00;;;;;;;41.78;7.38;;;24.50;99.90;;;;;;5014555;28;20018;-78
2021/06/23 03:51:27;;;;;;;42.45;7.65;;;24.60;99.90;;;;;;5013917;28;20108;-77
2021/06/23 03:53:53;;;;;;;45.28;7.97;;;24.70;99.90;;;;;;5014135;28;20100;-78
2021/06/23 03:56:18;;;;;;;45.17;6.72;;;24.70;99.90;;;;;;5014273;28;20133;-79
2021/06/23 03:58:44;;;;;;;36.97;8.32;;;24.70;99.90;;;;;;5014173;28;20041;-77
2021/06/23 04:01:11;;;;;;;48.08;7.75;;;24.70;99.90;;;;;;5014106;28;20018;-77
2021/06/23 04:03:38;;;;;;;39.97;8.07;;;24.80;99.90;;;;;;5014289;28;20025;-78
2021/06/23 04:06:04;;;;;;;40.15;7.72;;;24.90;99.90;;;;;;5013735;28;20018;-78
2021/06/23 04:08:29;;;;;;;46.67;8.52;;;25.00;99.90;;;;;;5014030;28;20081;-78
2021/06/23 04:10:55;;;;;;;48.15;8.32;;;25.10;99.90;;;;;;5013658;28;20053;-78
2021/06/23 04:13:21;;;;;;;42.42;8.38;;;25.30;99.90;;;;;;5014162;28;20025;-78
2021/06/23 04:15:47;;;;;;;59.67;8.07;;;25.40;99.70;;;;;;5014141;28;20021;-78
2021/06/23 04:18:12;;;;;;;47.80;8.43;;;25.60;99.50;;;;;;5014139;28;20079;-78
2021/06/23 04:20:38;;;;;;;55.15;7.90;;;25.80;99.30;;;;;;5014077;28;20197;-78
2021/06/23 04:23:04;;;;;;;57.00;8.00;;;26.00;99.00;;;;;;5013512;28;20037;-78
2021/06/23 04:25:29;;;;;;;41.95;7.95;;;26.20;98.90;;;;;;5013609;28;20478;-78
2021/06/23 04:27:55;;;;;;;40.83;7.47;;;26.40;98.70;;;;;;5013967;28;20101;-77
2021/06/23 04:30:21;;;;;;;54.17;8.35;;;26.50;98.40;;;;;;5012938;28;20026;-78
2021/06/23 04:32:47;;;;;;;56.95;7.18;;;26.70;98.30;;;;;;5013214;28;20032;-78
2021/06/23 04:35:13;;;;;;;52.78;7.45;;;26.80;98.00;;;;;;5013762;28;20373;-77
2021/06/23 04:37:41;;;;;;;43.97;7.30;;;27.20;97.80;;;;;;5013589;28;20504;-78
2021/06/23 04:40:10;;;;;;;36.60;7.70;;;28.00;97.00;;;;;;4995805;28;20385;-78
2021/06/23 04:42:36;;;;;;;51.15;7.45;;;28.90;96.30;;;;;;5012480;28;20045;-78
2021/06/23 04:45:07;;;;;;;48.10;7.38;;;29.90;95.20;;;;;;4996217;28;20021;-78
2021/06/23 04:47:34;;;;;;;43.65;7.57;;;30.90;94.20;;;;;;5013606;28;20022;-78
2021/06/23 04:50:00;;;;;;;42.50;7.32;;;31.80;93.40;;;;;;5013245;28;20037;-77
2021/06/23 04:52:26;;;;;;;45.15;7.60;;;32.50;92.80;;;;;;5013024;28;20026;-78
2021/06/23 04:54:52;;;;;;;52.65;7.75;;;33.30;91.90;;;;;;5013526;28;20647;-78
2021/06/23 04:57:18;;;;;;;43.83;6.70;;;34.00;91.20;;;;;;5013237;28;20045;-78
2021/06/23 04:59:44;;;;;;;43.92;7.75;;;34.40;90.60;;;;;;5013511;28;20477;-78
2021/06/23 05:02:10;;;;;;;51.88;7.85;;;34.60;90.20;;;;;;5013318;28;20386;-77
2021/06/23 05:04:36;;;;;;;40.05;6.93;;;34.60;90.00;;;;;;5013665;28;20041;-80
2021/06/23 05:07:04;;;;;;;39.15;7.82;;;35.00;89.30;;;;;;5012175;28;20482;-81
2021/06/23 05:09:30;;;;;;;37.15;6.95;;;35.00;88.40;;;;;;5012564;28;20359;-80
2021/06/23 05:11:55;;;;;;;55.17;7.80;;;35.80;88.20;;;;;;5013006;28;20029;-79
2021/06/23 05:14:21;;;;;;;51.70;7.70;;;35.70;87.80;;;;;;5012753;28;20030;-81
2021/06/23 05:16:48;;;;;;;48.58;7.72;;;36.30;86.60;;;;;;5012195;28;20486;-80
2021/06/23 05:19:14;;;;;;;58.15;8.65;;;36.70;85.40;;;;;;5012899;28;20397;-79
2021/06/23 05:21:40;;;;;;;46.00;8.38;;;37.30;84.70;;;;;;5012661;28;20832;-79
2021/06/23 05:24:06;;;;;;;41.95;6.68;;;37.40;84.40;;;;;;5013116;28;20061;-81
2021/06/23 05:26:32;;;;;;;33.22;6.57;;;37.90;83.50;;;;;;5012498;28;20014;-81
2021/06/23 05:28:58;;;;;;;39.25;6.72;;;38.20;82.70;;;;;;4995041;28;20069;-79
2021/06/23 05:31:23;;;;;;;45.70;6.63;;;38.80;81.90;;;;;;5012578;28;20060;-82
2021/06/23 05:33:50;;;;;;;60.38;7.47;;;39.40;80.70;;;;;;5014090;28;20018;-83
2021/06/23 05:36:15;;;;;;;36.92;6.10;;;39.30;80.60;;;;;;5031762;28;21379;-81
2021/06/23 05:38:41;;;;;;;45.75;7.85;;;40.00;79.20;;;;;;5020696;28;20056;-80
2021/06/23 05:41:07;;;;;;;47.47;7.38;;;40.90;78.50;;;;;;5012142;28;20049;-79
2021/06/23 05:43:32;;;;;;;46.13;7.18;;;40.90;78.00;;;;;;5012754;28;20078;-81
2021/06/23 05:45:58;;;;;;;44.13;7.18;;;41.30;77.30;;;;;;5012289;28;20095;-78
2021/06/23 05:48:24;;;;;;;49.78;7.38;;;41.50;76.40;;;;;;5011815;28;20425;-79
2021/06/23 05:50:50;;;;;;;34.50;6.78;;;41.50;76.00;;;;;;5011463;28;20026;-79
2021/06/23 05:53:16;;;;;;;45.38;8.20;;;42.10;75.80;;;;;;5011903;28;20382;-80
2021/06/23 05:55:42;;;;;;;37.63;7.30;;;42.60;75.30;;;;;;5012668;28;20026;-79
2021/06/23 05:58:08;;;;;;;37.00;6.65;;;43.40;73.90;;;;;;5011790;28;20374;-77
2021/06/23 06:00:36;;;;;;;41.58;8.13;;;43.40;73.20;;;;;;5011958;28;20433;-78
2021/06/23 06:03:03;;;;;;;34.65;6.72;;;43.00;73.40;;;;;;4992126;28;20438;-78
2021/06/23 06:05:29;;;;;;;41.47;6.93;;;42.40;74.30;;;;;;5011954;28;20041;-79
2021/06/23 06:07:55;;;;;;;48.88;7.05;;;42.80;73.00;;;;;;5012200;28;20486;-79
2021/06/23 06:10:20;;;;;;;41.95;7.10;;;42.70;74.00;;;;;;5011853;28;20022;-79
2021/06/23 06:12:46;;;;;;;40.28;7.50;;;42.90;73.70;;;;;;5011057;28;20022;-78
2021/06/23 06:15:12;;;;;;;42.08;7.60;;;43.70;73.10;;;;;;5010435;28;20061;-78
2021/06/23 06:17:38;;;;;;;35.55;6.70;;;44.20;71.80;;;;;;5011314;28;20402;-78
2021/06/23 06:20:05;;;;;;;36.95;6.75;;;44.20;71.50;;;;;;5011999;28;20022;-79
2021/06/23 06:22:32;;;;;;;65.13;7.88;;;43.50;71.20;;;;;;5010726;28;20673;-79
2021/06/23 06:24:58;;;;;;;62.13;6.85;;;43.60;71.60;;;;;;5012741;28;20026;-80
2021/06/23 06:27:24;;;;;;;46.20;6.60;;;44.20;71.50;;;;;;5011871;28;20057;-80
2021/06/23 06:29:50;;;;;;;35.70;6.00;;;44.40;70.00;;;;;;4998551;28;20022;-81
2021/06/23 06:32:16;;;;;;;42.47;7.22;;;44.30;70.60;;;;;;5011300;28;20388;-80
2021/06/23 06:34:41;;;;;;;33.67;6.75;;;44.80;70.50;;;;;;5010734;28;20083;-79
2021/06/23 06:37:07;;;;;;;53.03;7.53;;;45.20;69.00;;;;;;5011944;28;20405;-80
2021/06/23 06:39:33;;;;;;;42.05;6.75;;;45.00;69.20;;;;;;5011723;28;20478;-81
2021/06/23 06:41:58;;;;;;;44.25;6.43;;;45.40;68.80;;;;;;5012000;28;20030;-81
2021/06/23 06:44:28;;;;;;;48.30;7.30;;;45.20;67.70;;;;;;5011546;28;20034;-80
2021/06/23 06:46:54;;;;;;;38.80;7.68;;;44.60;68.30;;;;;;5011009;28;20017;-80
2021/06/23 06:49:19;;;;;;;47.22;6.53;;;43.80;68.90;;;;;;5010373;28;20021;-80
2021/06/23 06:51:45;;;;;;;51.00;6.90;;;42.50;70.40;;;;;;5011569;28;20029;-81
2021/06/23 06:54:11;;;;;;;44.83;8.50;;;41.50;71.10;;;;;;5013688;28;20030;-80
2021/06/23 06:56:37;;;;;;;61.97;7.35;;;40.40;73.90;;;;;;5014590;28;20454;-81
2021/06/23 06:59:02;;;;;;;36.90;6.80;;;39.20;76.10;;;;;;5014502;28;20026;-80
2021/06/23 07:01:28;;;;;;;47.15;6.97;;;38.30;77.20;;;;;;5014602;28;20029;-80
2021/06/23 07:03:55;;;;;;;50.85;7.88;;;37.60;77.80;;;;;;5014373;28;20041;-79
2021/06/23 07:06:21;;;;;;;52.35;7.82;;;37.00;78.30;;;;;;5014832;28;20518;-78
2021/06/23 07:08:46;;;;;;;46.08;7.93;;;36.50;78.70;;;;;;5013641;28;20025;-79
2021/06/23 07:11:12;;;;;;;57.40;7.47;;;36.30;79.50;;;;;;5014864;28;20029;-79
2021/06/23 07:13:38;;;;;;;89.63;13.40;;;36.00;79.90;;;;;;5014015;28;20474;-79
2021/06/23 07:16:04;;;;;;;58.95;7.88;;;35.80;80.30;;;;;;5015058;28;20030;-77
2021/06/23 07:18:30;;;;;;;54.30;7.75;;;35.50;80.80;;;;;;5012990;28;20054;-77
2021/06/23 07:20:55;;;;;;;49.15;7.85;;;35.40;81.40;;;;;;5013343;28;20109;-77
2021/06/23 07:23:21;;;;;;;68.65;7.40;;;35.30;81.90;;;;;;5014493;28;20029;-78
2021/06/23 07:25:47;;;;;;;52.70;8.00;;;35.10;82.80;;;;;;5014364;28;20101;-76
2021/06/23 07:28:16;;;;;;;60.75;7.60;;;35.10;82.60;;;;;;5015027;28;20041;-77
2021/06/23 07:30:45;;;;;;;44.22;5.68;;;35.30;82.40;;;;;;5014285;28;20049;-78
2021/06/23 07:33:11;;;;;;;49.67;7.88;;;35.40;82.10;;;;;;5014077;28;20025;-76
2021/06/23 07:38:22;;;;;;;60.03;8.07;;;35.30;82.80;;;;;;5008551;28;20036;-76
2021/06/23 07:41:05;;;;;;;59.58;8.20;;;35.20;83.70;;;;;;5014668;28;20029;-76
2021/06/23 07:43:31;;;;;;;50.03;9.05;;;35.10;83.90;;;;;;5014137;28;20037;-76
2021/06/23 07:45:59;;;;;;;55.60;8.15;;;35.10;83.50;;;;;;5013634;28;20536;-76
2021/06/23 07:48:29;;;;;;;42.97;9.18;;;34.90;83.60;;;;;;5010644;28;20026;-79
2021/06/23 07:51:06;;;;;;;47.10;7.40;;;34.80;84.00;;;;;;5013536;28;20022;-78
2021/06/23 07:53:59;;;;;;;63.03;8.07;;;34.80;83.90;;;;;;5013875;28;20029;-77
2021/06/23 08:09:51;;;;;;;41.50;7.05;;;34.90;85.00;;;;;;5014332;28;20543;-77
2021/06/23 08:12:22;;;;;;;44.88;7.88;;;34.90;85.90;;;;;;5013906;28;20373;-80
2021/06/23 08:14:48;;;;;;;;;;;34.80;86.20;;;;;;4996077;28;20105;-79
2021/06/23 08:17:14;;;;;;;63.58;8.38;;;34.70;86.60;;;;;;5011216;28;20008;-80
2021/06/23 08:19:39;;;;;;;49.25;8.27;;;34.80;86.80;;;;;;5013129;28;20087;-80
2021/06/23 08:22:05;;;;;;;59.15;8.07;;;34.90;86.40;;;;;;5014171;28;20066;-80
2021/06/23 08:24:31;;;;;;;51.72;8.18;;;34.80;87.20;;;;;;5014382;28;20482;-80
2021/06/23 08:26:57;;;;;;;41.00;8.02;;;34.70;87.70;;;;;;5013397;28;20024;-79
2021/06/23 08:29:22;;;;;;;63.80;7.68;;;34.70;87.40;;;;;;5014271;28;20022;-81
2021/06/23 08:31:48;;;;;;;57.55;7.38;;;34.60;88.30;;;;;;5014141;28;20053;-81
2021/06/23 08:34:17;;;;;;;56.15;7.68;;;34.70;88.10;;;;;;5013315;28;20026;-81
2021/06/23 08:36:42;;;;;;;68.72;8.68;;;34.80;87.70;;;;;;5014089;28;20041;-80
2021/06/23 08:39:08;;;;;;;59.30;8.05;;;35.10;88.20;;;;;;5013649;28;20018;-78
2021/06/23 08:41:37;;;;;;;46.92;7.15;;;35.10;87.70;;;;;;5013539;28;20030;-80
2021/06/23 08:44:02;;;;;;;49.53;7.53;;;35.20;87.50;;;;;;5013773;28;20521;-80
2021/06/23 08:46:30;;;;;;;47.22;7.50;;;35.10;87.90;;;;;;5012566;28;20052;-77
2021/06/23 08:48:59;;;;;;;49.28;7.18;;;35.00;88.70;;;;;;5013355;28;20033;-80
2021/06/23 08:51:26;;;;;;;37.25;7.68;;;34.80;89.60;;;;;;5013108;28;20386;-79
2021/06/23 08:53:51;;;;;;;51.65;7.75;;;34.70;89.90;;;;;;5011441;28;20022;-79
2021/06/23 08:56:17;;;;;;;47.97;8.63;;;34.70;90.10;;;;;;5010450;28;20371;-77
2021/06/23 08:58:44;;;;;;;43.75;6.82;;;34.70;90.40;;;;;;5010741;28;20486;-78
2021/06/23 09:01:09;;;;;;;46.65;7.00;;;34.50;90.50;;;;;;5011473;28;20030;-79
2021/06/23 09:04:00;;;;;;;41.58;8.18;;;34.30;90.60;;;;;;5015005;28;20064;-78
2021/06/23 09:06:49;;;;;;;57.88;7.55;;;34.30;90.80;;;;;;5011109;28;20029;-77
2021/06/23 09:09:18;;;;;;;54.30;7.68;;;34.30;90.90;;;;;;5010945;28;20038;-78
2021/06/23 09:11:44;;;;;;;50.28;7.93;;;34.20;91.30;;;;;;5011068;28;20037;-79
2021/06/23 09:14:13;;;;;;;53.40;8.07;;;34.10;91.40;;;;;;5012739;28;20030;-78
2021/06/23 09:17:07;;;;;;;54.42;7.57;;;34.20;91.20;;;;;;5011614;28;20025;-79
2021/06/23 09:19:43;;;;;;;54.70;8.05;;;34.30;91.10;;;;;;5006315;28;20112;-78
2021/06/23 09:22:41;;;;;;;52.35;8.15;;;34.20;91.70;;;;;;5012262;28;21773;-77
2021/06/23 09:25:13;;;;;;;62.20;8.98;;;33.90;92.10;;;;;;5012123;28;20053;-78
2021/06/23 09:27:46;;;;;;;35.60;6.63;;;33.80;92.70;;;;;;5011584;28;20481;-77
2021/06/23 09:30:32;;;;;;;55.83;8.68;;;33.80;92.50;;;;;;5012132;28;20061;-78
2021/06/23 09:33:24;;;;;;;53.13;7.20;;;33.80;92.50;;;;;;5013002;28;20025;-80
2021/06/23 09:36:02;;;;;;;43.58;7.15;;;34.00;93.00;;;;;;4995830;28;20034;-79
2021/06/23 09:38:33;;;;;;;40.17;8.55;;;34.00;93.00;;;;;;4999502;28;20033;-79
2021/06/23 09:41:00;;;;;;;50.38;8.23;;;34.10;92.90;;;;;;5013265;28;20026;-81
2021/06/23 09:43:37;;;;;;;42.97;8.35;;;34.10;93.50;;;;;;5013243;28;20030;-80
2021/06/23 09:46:13;;;;;;;50.65;8.07;;;34.00;93.20;;;;;;5013380;28;20462;-80
2021/06/23 09:48:38;;;;;;;56.63;8.60;;;34.20;93.40;;;;;;5013516;28;20462;-80
2021/06/23 09:51:47;;;;;;;38.05;7.80;;;34.30;93.00;;;;;;5013553;28;20083;-79
2021/06/23 09:54:14;;;;;;;37.50;7.15;;;34.40;93.70;;;;;;4994500;28;20045;-80
2021/06/23 09:56:45;;;;;;;38.55;8.93;;;34.10;94.40;;;;;;5012899;28;20037;-80
2021/06/23 09:59:31;;;;;;;50.17;7.97;;;33.70;95.00;;;;;;5013313;28;20071;-80
2021/06/23 10:01:57;;;;;;;43.17;9.48;;;33.50;95.30;;;;;;5013033;28;20022;-80
2021/06/23 10:04:31;;;;;;;56.80;8.27;;;33.30;95.30;;;;;;5013207;28;20075;-80
2021/06/23 10:06:56;;;;;;;48.17;8.32;;;33.50;95.50;;;;;;5012809;28;20373;-80
2021/06/23 10:09:27;;;;;;;44.78;8.07;;;33.50;95.50;;;;;;5013351;28;20030;-80
2021/06/23 10:12:13;;;;;;;50.30;8.55;;;33.70;95.30;;;;;;5012885;28;20032;-80
2021/06/23 10:14:45;;;;;;;45.63;7.57;;;33.80;95.10;;;;;;5012879;28;20037;-80
2021/06/23 10:17:12;;;;;;;36.05;7.28;;;33.90;94.90;;;;;;5012552;28;20501;-80
2021/06/23 10:19:38;;;;;;;36.78;7.18;;;33.80;94.90;;;;;;5012672;28;20034;-80
2021/06/23 10:22:08;;;;;;;28.60;8.05;;;33.70;95.20;;;;;;5013025;28;20034;-80
2021/06/23 10:24:35;;;;;;;40.55;7.90;;;33.70;95.70;;;;;;5013343;28;20030;-80
2021/06/23 10:27:07;;;;;;;56.13;9.73;;;33.60;95.60;;;;;;5012778;28;20109;-80
2021/06/23 10:29:35;;;;;;;52.58;7.95;;;33.40;96.10;;;;;;5015647;28;20022;-79
2021/06/23 10:32:02;;;;;;;39.45;7.88;;;33.30;96.50;;;;;;5016929;28;20064;-79
2021/06/23 10:34:29;;;;;;;43.33;9.32;;;33.20;96.80;;;;;;5016874;28;20106;-78
2021/06/23 10:36:56;;;;;;;43.63;9.02;;;33.20;97.10;;;;;;5016791;28;20021;-79
2021/06/23 10:39:28;;;;;;;56.10;8.18;;;33.20;97.00;;;;;;5016567;28;20025;-78
2021/06/23 10:41:59;;;;;;;54.45;9.55;;;33.30;96.60;;;;;;5016905;28;20072;-78
2021/06/23 10:44:47;;;;;;;40.90;7.72;;;33.20;96.70;;;;;;5016805;28;20032;-78
2021/06/23 10:47:46;;;;;;;44.97;8.98;;;33.10;97.20;;;;;;5005908;28;20048;-78
2021/06/23 10:50:17;;;;;;;39.75;7.72;;;33.10;97.10;;;;;;5005504;28;20124;-79
2021/06/23 10:52:44;;;;;;;55.15;8.63;;;33.00;97.30;;;;;;5016561;28;20026;-79
2021/06/23 10:55:22;;;;;;;43.50;9.65;;;33.00;97.70;;;;;;5016175;28;20100;-81
2021/06/23 10:57:50;;;;;;;47.03;8.65;;;33.00;97.60;;;;;;5016424;28;20025;-82
2021/06/23 11:00:18;;;;;;;38.00;8.23;;;33.20;97.60;;;;;;5016223;28;20033;-80
2021/06/23 11:02:50;;;;;;;45.10;7.82;;;33.20;97.40;;;;;;5016483;28;20104;-80
2021/06/23 11:05:17;;;;;;;47.60;8.52;;;33.30;97.00;;;;;;5016126;28;20120;-79
2021/06/23 11:07:47;;;;;;;35.45;7.75;;;33.30;97.50;;;;;;5016398;28;20072;-79
2021/06/23 11:10:16;;;;;;;42.65;9.07;;;33.20;98.00;;;;;;5016239;28;20056;-79
2021/06/23 11:12:55;;;;;;;61.80;8.68;;;33.00;98.30;;;;;;5016244;28;20050;-79
2021/06/23 11:15:33;;;;;;;36.72;7.47;;;32.90;98.00;;;;;;5015982;28;20029;-79
2021/06/23 11:18:14;;;;;;;45.65;8.40;;;32.90;97.60;;;;;;5016031;28;20148;-79
2021/06/23 11:20:42;;;;;;;227.45;130.05;;;33.00;97.60;;;;;;5015839;28;20032;-79
2021/06/23 11:23:27;;;;;;;62.30;22.35;;;33.10;97.40;;;;;;4998431;28;20088;-78
2021/06/23 11:25:53;;;;;;;56.75;8.90;;;32.90;98.00;;;;;;5015812;28;20081;-78
2021/06/23 11:28:29;;;;;;;48.08;8.85;;;33.00;99.20;;;;;;5015748;28;20034;-77
2021/06/23 11:31:09;;;;;;;46.40;8.48;;;33.00;99.40;;;;;;5015511;28;20096;-77
2021/06/23 11:33:38;;;;;;;46.03;8.57;;;33.00;99.40;;;;;;5015684;28;20066;-77
2021/06/23 11:36:09;;;;;;;46.00;9.48;;;32.90;99.90;;;;;;5015750;28;20057;-77
2021/06/23 11:38:37;;;;;;;53.13;8.90;;;32.70;99.90;;;;;;5015706;28;20125;-78
2021/06/23 11:41:05;;;;;;;35.05;8.23;;;32.60;99.90;;;;;;5017591;28;20018;-77
2021/06/23 11:43:31;;;;;;;45.80;7.93;;;32.50;99.90;;;;;;5015701;28;20046;-77
2021/06/23 11:45:57;;;;;;;53.05;8.48;;;32.20;99.90;;;;;;5015468;28;20053;-77
2021/06/23 11:48:24;;;;;;;55.50;9.50;;;32.00;99.90;;;;;;5015401;28;20040;-77
2021/06/23 11:50:51;;;;;;;40.13;9.65;;;31.90;99.90;;;;;;5015737;28;20104;-77
2021/06/23 11:53:19;;;;;;;48.75;8.20;;;31.80;99.90;;;;;;5015258;28;20026;-77
2021/06/23 11:55:49;;;;;;;63.08;9.48;;;31.90;99.90;;;;;;5015621;28;20022;-77
2021/06/23 11:58:14;;;;;;;45.55;9.23;;;31.90;99.90;;;;;;5015009;28;20045;-77
2021/06/23 12:00:41;;;;;;;44.65;8.50;;;31.90;99.90;;;;;;5015362;28;20030;-78
2021/06/23 12:03:10;;;;;;;43.08;7.88;;;31.90;99.90;;;;;;5015513;28;20128;-77
2021/06/23 12:05:36;;;;;;;52.92;9.80;;;31.80;99.90;;;;;;5001722;28;20029;-77
2021/06/23 12:08:02;;;;;;;57.58;8.63;;;31.80;99.90;;;;;;5015216;28;20378;-78
2021/06/23 12:10:30;;;;;;;53.13;10.25;;;31.90;99.90;;;;;;5014820;28;20046;-77
2021/06/23 12:12:56;;;;;;;51.63;8.93;;;31.90;99.90;;;;;;4997684;28;20033;-77
2021/06/23 12:15:24;;;;;;;43.83;8.43;;;31.90;99.90;;;;;;5014803;28;20048;-78
2021/06/23 12:17:52;;;;;;;45.63;9.73;;;32.00;99.90;;;;;;5015098;28;20042;-77
2021/06/23 12:20:19;;;;;;;55.63;9.93;;;31.90;99.90;;;;;;5014745;28;20521;-78
2021/06/23 12:22:45;;;;;;;41.65;9.57;;;31.90;99.90;;;;;;5014974;28;20069;-77
2021/06/23 12:25:15;;;;;;;46.90;8.95;;;31.90;99.90;;;;;;5014717;28;20025;-78
2021/06/23 12:27:41;;;;;;;47.38;10.15;;;32.00;99.90;;;;;;5014501;28;20034;-77
2021/06/23 12:30:08;;;;;;;48.15;8.23;;;32.00;99.90;;;;;;5014605;28;20033;-77
2021/06/23 12:32:34;;;;;;;51.78;8.90;;;32.10;99.90;;;;;;5014330;28;20415;-77
2021/06/23 12:35:03;;;;;;;57.25;9.63;;;32.00;99.90;;;;;;5014419;28;20053;-77
2021/06/23 12:37:29;;;;;;;46.50;9.02;;;31.90;99.90;;;;;;5014721;28;20014;-77
2021/06/23 12:39:55;;;;;;;38.72;8.73;;;31.90;99.90;;;;;;5014364;28;20493;-77
2021/06/23 12:42:21;;;;;;;55.83;10.00;;;31.70;99.90;;;;;;4996864;28;20076;-77
2021/06/23 12:44:46;;;;;;;40.50;9.68;;;31.70;99.90;;;;;;5014308;28;20431;-77
2021/06/23 12:47:12;;;;;;;42.72;8.10;;;31.70;99.90;;;;;;4996713;28;20057;-77
2021/06/23 12:49:38;;;;;;;54.83;9.15;;;31.70;99.90;;;;;;5014279;28;20030;-76
2021/06/23 12:52:05;;;;;;;52.05;10.30;;;31.80;99.90;;;;;;5013412;28;20427;-77
2021/06/23 12:54:31;;;;;;;36.45;9.55;;;31.90;99.90;;;;;;5014264;28;20538;-77
2021/06/23 12:56:56;;;;;;;48.28;8.50;;;31.90;99.90;;;;;;5013525;28;20108;-76
2021/06/23 12:59:24;;;;;;;55.17;9.40;;;32.00;99.90;;;;;;5012784;28;20067;-81